Time;durP1;ratioP1;P1;durP2;ratioP2;P2;SDS_P1;SDS_P2;PMS_P1;PMS_P2;Temp;Humidity;BMP_temperature;BMP_pressure;BME280_temperature;BME280_humidity;BME280_pressure;Samples;Min_cycle;Max_cycle;Signal;HPM_P1;HPM_P2
2021/08/06 00:02:19;;;;;;;3.30;3.00;;;;;;;19.90;62.32;100126.72;5052311;28;20028;-73
2021/08/06 00:04:45;;;;;;;3.40;3.13;;;;;;;19.66;61.70;100127.09;5064018;28;20031;-73
2021/08/06 00:07:11;;;;;;;6.25;2.97;;;;;;;19.57;62.76;100126.09;5079521;28;20024;-73
2021/08/06 00:09:36;;;;;;;4.47;3.10;;;;;;;19.96;60.99;100130.66;5083196;28;20052;-74
2021/08/06 00:12:03;;;;;;;5.20;2.80;;;;;;;19.78;62.08;100139.31;5068972;28;20104;-74
2021/08/06 00:14:28;;;;;;;4.18;2.80;;;;;;;19.73;62.46;100128.25;5055009;28;20071;-74
2021/08/06 00:16:54;;;;;;;4.47;2.70;;;;;;;19.63;63.26;100124.72;5063870;28;20080;-74
2021/08/06 00:19:20;;;;;;;2.70;2.50;;;;;;;19.46;64.11;100131.53;5046290;28;20340;-74
2021/08/06 00:21:45;;;;;;;3.83;3.08;;;;;;;19.58;64.41;100130.44;5071415;28;20082;-74
2021/08/06 00:24:10;;;;;;;3.63;3.22;;;;;;;19.22;66.02;100129.25;5063587;28;20227;-74
2021/08/06 00:26:36;;;;;;;4.35;3.17;;;;;;;19.38;66.55;100122.44;5062787;28;20036;-74
2021/08/06 00:29:01;;;;;;;3.22;2.92;;;;;;;19.17;66.04;100121.69;5079452;28;20036;-74
2021/08/06 00:31:27;;;;;;;3.70;3.30;;;;;;;19.35;67.16;100121.88;5060383;28;20368;-73
2021/08/06 00:33:52;;;;;;;3.40;3.10;;;;;;;19.04;66.36;100115.78;5075142;28;20175;-73
2021/08/06 00:36:17;;;;;;;3.45;2.92;;;;;;;18.99;67.31;100111.75;5082451;28;20032;-73
2021/08/06 00:38:43;;;;;;;5.78;3.47;;;;;;;19.26;66.74;100112.91;5082418;28;20280;-73
2021/08/06 00:41:08;;;;;;;5.32;3.00;;;;;;;19.17;67.24;100117.25;5077260;28;20072;-73
2021/08/06 00:43:34;;;;;;;4.38;3.30;;;;;;;19.14;67.12;100106.88;5080171;28;20354;-73
2021/08/06 00:45:59;;;;;;;2.72;2.53;;;;;;;19.41;65.89;100115.19;5082920;28;20040;-73
2021/08/06 00:48:25;;;;;;;2.80;2.60;;;;;;;19.92;64.30;100116.81;5080649;28;20212;-73
2021/08/06 00:50:50;;;;;;;2.83;2.63;;;;;;;19.79;65.23;100117.06;5094969;28;20047;-73
2021/08/06 00:53:16;;;;;;;3.15;2.90;;;;;;;19.81;64.89;100120.44;5052216;28;20032;-73
2021/08/06 00:55:42;;;;;;;3.47;3.08;;;;;;;19.97;64.36;100108.41;5061513;28;20254;-73
2021/08/06 00:58:07;;;;;;;3.15;2.85;;;;;;;20.24;63.66;100121.78;5047880;28;20355;-73
2021/08/06 01:00:33;;;;;;;3.35;2.67;;;;;;;20.23;64.36;100117.47;5048586;28;20036;-73
2021/08/06 01:03:06;;;;;;;2.97;2.67;;;;;;;19.50;67.67;100123.19;5082760;28;20035;-73
2021/08/06 01:06:08;;;;;;;5.68;2.78;;;;;;;19.45;67.85;100119.25;5062474;28;20043;-73
2021/08/06 01:08:43;;;;;;;3.75;2.83;;;;;;;19.20;69.39;100128.56;5073251;28;20033;-73
2021/08/06 01:11:08;;;;;;;3.40;3.08;;;;;;;18.67;72.16;100108.38;5080080;28;20031;-73
2021/08/06 01:13:37;;;;;;;4.10;3.30;;;;;;;18.26;74.43;100107.44;5049685;28;20062;-73
2021/08/06 01:16:03;;;;;;;3.20;2.90;;;;;;;17.84;76.06;100102.91;5099115;28;20337;-74
2021/08/06 01:18:30;;;;;;;3.40;2.90;;;;;;;18.34;74.20;100099.69;5058571;28;20232;-73
2021/08/06 01:20:56;;;;;;;4.20;2.50;;;;;;;18.26;73.81;100102.13;5042589;28;20055;-73
2021/08/06 01:23:27;;;;;;;5.55;3.00;;;;;;;18.45;73.20;100098.75;5041876;28;20320;-73
2021/08/06 01:26:00;;;;;;;2.90;2.65;;;;;;;18.22;74.35;100101.53;5039541;28;20066;-73
2021/08/06 01:28:27;;;;;;;4.07;2.50;;;;;;;18.09;75.21;100095.59;5050657;28;20099;-73
2021/08/06 01:30:53;;;;;;;3.38;3.03;;;;;;;18.13;76.09;100094.38;5064656;28;20032;-73
2021/08/06 01:33:18;;;;;;;2.90;2.70;;;;;;;18.02;75.33;100088.16;5068378;28;20028;-73
2021/08/06 01:35:44;;;;;;;3.55;3.25;;;;;;;17.76;77.31;100092.94;5079073;28;20099;-73
2021/08/06 01:38:10;;;;;;;3.65;3.30;;;;;;;17.69;77.62;100075.88;5052241;28;20029;-73
2021/08/06 01:41:12;;;;;;;4.30;2.90;;;;;;;17.62;78.85;100080.00;5064847;28;20043;-74
2021/08/06 01:44:11;;;;;;;3.00;2.80;;;;;;;17.74;76.89;100076.34;5062234;28;20070;-74
2021/08/06 01:46:39;;;;;;;3.60;3.17;;;;;;;17.63;77.50;100071.94;5074042;28;20242;-74
2021/08/06 01:49:16;;;;;;;4.78;3.40;;;;;;;17.46;78.15;100077.78;5063916;28;20048;-74
2021/08/06 01:51:43;;;;;;;3.33;3.03;;;;;;;17.66;77.32;100073.50;5033524;28;20036;-74
2021/08/06 01:54:10;;;;;;;5.80;3.35;;;;;;;17.53;77.56;100073.66;5040346;28;20029;-74
2021/08/06 01:56:35;;;;;;;3.20;3.00;;;;;;;17.77;76.56;100078.75;5042190;28;20223;-74
2021/08/06 01:59:01;;;;;;;3.40;2.92;;;;;;;17.54;77.90;100072.69;5075197;28;20024;-74
2021/08/06 02:01:26;;;;;;;3.40;3.13;;;;;;;17.70;76.98;100063.47;5059812;28;20243;-74
2021/08/06 02:03:52;;;;;;;4.00;3.42;;;;;;;17.82;76.61;100063.31;5055194;28;20033;-74
2021/08/06 02:06:20;;;;;;;3.75;3.38;;;;;;;17.94;75.46;100060.66;5058274;28;20071;-73
2021/08/06 02:08:46;;;;;;;2.63;2.42;;;;;;;18.42;72.93;100060.09;5040153;28;20098;-74
2021/08/06 02:11:12;;;;;;;3.05;2.70;;;;;;;18.27;73.13;100059.59;5059914;28;20312;-73
2021/08/06 02:13:38;;;;;;;4.15;3.08;;;;;;;18.14;74.84;100057.16;5077065;28;20085;-73
2021/08/06 02:16:04;;;;;;;2.80;2.60;;;;;;;18.13;74.15;100057.28;5078485;28;20043;-73
2021/08/06 02:18:31;;;;;;;2.70;2.50;;;;;;;17.95;75.19;100051.72;5049420;28;20033;-73
2021/08/06 02:20:57;;;;;;;3.22;2.63;;;;;;;18.74;71.33;100059.13;5074025;28;20025;-73
2021/08/06 02:23:23;;;;;;;4.55;2.97;;;;;;;18.54;72.46;100052.91;5074609;28;20035;-73
2021/08/06 02:25:49;;;;;;;2.95;2.75;;;;;;;18.49;72.77;100053.28;5061308;28;20377;-73
2021/08/06 02:28:14;;;;;;;3.05;2.70;;;;;;;18.86;71.26;100054.56;5040392;28;20031;-73
2021/08/06 02:30:40;;;;;;;4.50;2.63;;;;;;;18.33;74.89;100060.88;5060967;28;20029;-74
2021/08/06 02:33:05;;;;;;;4.20;2.70;;;;;;;18.72;71.97;100058.38;5063466;28;20037;-73
2021/08/06 02:35:30;;;;;;;3.03;2.80;;;;;;;18.53;73.69;100056.50;5065404;28;20086;-73
2021/08/06 02:37:56;;;;;;;7.00;2.80;;;;;;;18.98;70.95;100053.50;5060328;28;20024;-76
2021/08/06 02:40:21;;;;;;;2.60;2.40;;;;;;;18.65;72.22;100046.66;5071501;28;20075;-76
2021/08/06 02:42:48;;;;;;;3.88;2.70;;;;;;;18.91;71.48;100049.69;5045583;28;20029;-76
2021/08/06 02:45:13;;;;;;;4.88;2.80;;;;;;;19.14;70.67;100050.31;5055433;28;20059;-76
2021/08/06 02:47:39;;;;;;;4.70;2.85;;;;;;;18.36;74.86;100050.84;5061969;28;20108;-76
2021/08/06 02:50:04;;;;;;;3.67;2.88;;;;;;;18.77;72.32;100042.91;5076837;28;20220;-76
2021/08/06 02:52:30;;;;;;;3.10;2.80;;;;;;;18.86;71.96;100050.09;5069111;28;20051;-76
2021/08/06 02:54:55;;;;;;;3.00;2.80;;;;;;;19.04;71.34;100055.59;5063034;28;20025;-76
2021/08/06 02:57:20;;;;;;;2.90;2.60;;;;;;;18.83;72.13;100061.00;5082701;28;20056;-76
2021/08/06 02:59:46;;;;;;;4.03;2.42;;;;;;;18.37;74.26;100054.34;5083751;28;20028;-76
2021/08/06 03:02:11;;;;;;;3.55;2.50;;;;;;;18.65;71.75;100051.97;5064545;28;20041;-76
2021/08/06 03:04:37;;;;;;;3.88;2.72;;;;;;;19.12;69.88;100057.59;5061799;28;20269;-75
2021/08/06 03:07:03;;;;;;;3.28;2.00;;;;;;;18.97;71.04;100055.31;5080916;28;20039;-76
2021/08/06 03:09:28;;;;;;;2.75;2.15;;;;;;;19.71;68.92;100048.66;5081258;28;20042;-76
2021/08/06 03:11:55;;;;;;;3.92;2.47;;;;;;;19.61;68.73;100049.66;5063092;28;20232;-75
2021/08/06 03:14:20;;;;;;;2.47;2.28;;;;;;;19.45;69.85;100053.72;5044558;28;20045;-75
2021/08/06 03:16:45;;;;;;;2.50;2.30;;;;;;;19.46;69.73;100055.38;5055491;28;20108;-75
2021/08/06 03:19:11;;;;;;;2.97;2.67;;;;;;;19.21;70.67;100047.94;5099095;28;20040;-75
2021/08/06 03:21:36;;;;;;;2.33;2.13;;;;;;;19.47;69.36;100043.78;5068157;28;20047;-74
2021/08/06 03:24:02;;;;;;;4.85;2.72;;;;;;;19.18;71.11;100047.25;5051341;28;20099;-73
2021/08/06 03:26:27;;;;;;;4.05;3.15;;;;;;;19.27;71.31;100042.94;5073096;28;20287;-73
2021/08/06 03:28:53;;;;;;;4.25;2.42;;;;;;;19.28;71.42;100041.09;5084273;28;20032;-74
2021/08/06 03:31:18;;;;;;;2.95;2.40;;;;;;;19.64;68.35;100041.41;5063839;28;20059;-73
2021/08/06 03:33:44;;;;;;;2.85;2.50;;;;;;;19.53;69.17;100042.38;5082706;28;20032;-74
2021/08/06 03:36:10;;;;;;;4.82;2.22;;;;;;;20.55;64.73;100040.97;5082578;28;20028;-73
2021/08/06 03:38:35;;;;;;;3.33;2.50;;;;;;;20.74;63.43;100037.38;5048541;28;20044;-73
2021/08/06 03:41:01;;;;;;;2.40;2.20;;;;;;;19.92;67.81;100037.94;5059955;28;20040;-73
2021/08/06 03:43:26;;;;;;;2.10;2.00;;;;;;;20.07;66.78;100037.47;5063569;28;20020;-73
2021/08/06 03:45:52;;;;;;;3.88;2.25;;;;;;;20.46;65.24;100037.34;5093085;28;20032;-73
2021/08/06 03:48:17;;;;;;;2.40;2.20;;;;;;;20.56;65.48;100035.50;5046678;28;20028;-73
2021/08/06 03:50:43;;;;;;;2.47;2.03;;;;;;;20.29;66.50;100033.63;5064196;28;20084;-73
2021/08/06 03:53:08;;;;;;;2.80;2.10;;;;;;;20.44;65.24;100042.81;5081905;28;20081;-73
2021/08/06 03:55:33;;;;;;;2.53;2.33;;;;;;;20.23;65.80;100037.72;5046600;28;20029;-73
2021/08/06 03:57:59;;;;;;;3.35;2.35;;;;;;;21.12;62.57;100043.47;5074839;28;20363;-73
2021/08/06 04:00:31;;;;;;;2.40;2.10;;;;;;;20.78;65.65;100049.44;5101309;28;20032;-73
2021/08/06 04:02:56;;;;;;;2.10;1.88;;;;;;;20.31;65.69;100044.97;5048236;28;20420;-73
2021/08/06 04:05:21;;;;;;;2.90;2.60;;;;;;;19.55;69.36;100054.56;5063539;28;20032;-73
2021/08/06 04:07:47;;;;;;;2.33;2.15;;;;;;;19.89;68.24;100048.00;5057822;28;20215;-73
2021/08/06 04:10:14;;;;;;;3.58;1.80;;;;;;;19.64;69.44;100044.91;5045386;28;20343;-73
2021/08/06 04:12:40;;;;;;;5.80;2.30;;;;;;;20.31;67.32;100048.44;5064724;28;20040;-73
2021/08/06 04:15:06;;;;;;;3.63;2.22;;;;;;;20.55;65.35;100054.25;5084001;28;20051;-73
2021/08/06 04:17:31;;;;;;;3.65;2.17;;;;;;;20.97;64.28;100048.47;5094104;28;20149;-73
2021/08/06 04:19:56;;;;;;;3.35;2.30;;;;;;;20.28;66.79;100058.53;5047038;28;20036;-76
2021/08/06 04:22:22;;;;;;;4.00;2.20;;;;;;;20.16;67.82;100057.88;5064439;28;20044;-74
2021/08/06 04:24:48;;;;;;;3.80;2.53;;;;;;;19.52;69.56;100059.31;5047238;28;20201;-73
2021/08/06 04:27:13;;;;;;;2.65;2.38;;;;;;;19.30;70.36;100061.25;5086032;28;20380;-74
2021/08/06 04:29:38;;;;;;;5.05;2.65;;;;;;;19.52;69.06;100067.28;5100232;28;20257;-73
2021/08/06 04:32:04;;;;;;;2.70;2.15;;;;;;;20.48;65.36;100056.66;5080341;28;20244;-73
2021/08/06 04:34:29;;;;;;;2.28;2.05;;;;;;;20.67;64.48;100047.81;5063243;28;20036;-73
2021/08/06 04:36:55;;;;;;;2.75;2.28;;;;;;;20.50;65.47;100062.66;5059207;28;20047;-74
2021/08/06 04:39:20;;;;;;;3.40;2.83;;;;;;;20.45;65.46;100060.47;5082624;28;20334;-73
2021/08/06 04:41:48;;;;;;;4.53;2.38;;;;;;;20.58;64.89;100060.13;5082145;28;20051;-73
2021/08/06 04:44:14;;;;;;;4.45;2.58;;;;;;;19.84;68.74;100064.34;5083525;28;20236;-73
2021/08/06 04:46:39;;;;;;;4.82;2.72;;;;;;;19.33;70.69;100057.47;5065979;28;20036;-73
2021/08/06 04:49:05;;;;;;;5.13;2.85;;;;;;;19.80;68.12;100049.69;5040978;28;20115;-74
2021/08/06 04:51:30;;;;;;;5.43;2.05;;;;;;;20.19;66.33;100051.44;5081048;28;20040;-74
2021/08/06 04:53:55;;;;;;;3.70;2.15;;;;;;;19.44;70.05;100067.13;5080975;28;20323;-74
2021/08/06 04:56:21;;;;;;;4.05;2.75;;;;;;;19.77;68.07;100059.75;5082465;28;20027;-74
2021/08/06 04:58:46;;;;;;;6.47;2.75;;;;;;;19.45;70.26;100068.81;5048893;28;20028;-74
2021/08/06 05:01:12;;;;;;;4.85;2.35;;;;;;;19.37;69.93;100062.38;5062817;28;20028;-74
2021/08/06 05:03:37;;;;;;;2.75;2.13;;;;;;;20.05;67.23;100068.69;5063812;28;20323;-74
2021/08/06 05:06:03;;;;;;;3.80;2.20;;;;;;;20.35;65.68;100070.28;5080175;28;20044;-75
2021/08/06 05:08:28;;;;;;;4.03;2.28;;;;;;;20.09;67.21;100065.56;5041436;28;20032;-74
2021/08/06 05:10:54;;;;;;;4.20;2.30;;;;;;;19.71;69.06;100064.59;5046611;28;20090;-74
2021/08/06 05:13:19;;;;;;;3.17;2.55;;;;;;;19.82;68.92;100057.50;5064151;28;20036;-74
2021/08/06 05:15:45;;;;;;;3.45;2.25;;;;;;;20.01;67.90;100057.50;5083019;28;20047;-74
2021/08/06 05:18:10;;;;;;;6.55;2.30;;;;;;;19.60;69.48;100062.09;5034874;28;20039;-75
2021/08/06 05:20:36;;;;;;;4.47;2.10;;;;;;;20.05;67.23;100056.22;5062348;28;20044;-74
2021/08/06 05:23:01;;;;;;;5.28;2.40;;;;;;;19.74;68.40;100056.41;5077117;28;20091;-74
2021/08/06 05:25:27;;;;;;;4.50;2.60;;;;;;;19.21;70.88;100058.56;5048632;28;20063;-74
2021/08/06 05:27:52;;;;;;;10.20;2.20;;;;;;;19.47;69.05;100065.03;5093816;28;20327;-74
2021/08/06 05:30:22;;;;;;;3.33;1.98;;;;;;;19.94;67.28;100067.84;5062056;28;20209;-74
2021/08/06 05:32:49;;;;;;;5.43;2.40;;;;;;;20.02;67.47;100068.97;5063350;28;20138;-74
2021/08/06 05:35:14;;;;;;;5.28;2.30;;;;;;;19.95;68.27;100068.69;5046091;28;20063;-74
2021/08/06 05:37:40;;;;;;;2.42;1.73;;;;;;;20.88;64.34;100076.81;5050602;28;20413;-74
2021/08/06 05:40:06;;;;;;;3.28;2.00;;;;;;;20.10;67.38;100077.03;5067516;28;20024;-74
2021/08/06 05:42:31;;;;;;;3.15;1.80;;;;;;;20.38;66.43;100077.16;5100016;28;20046;-74
2021/08/06 05:44:57;;;;;;;2.47;2.13;;;;;;;19.52;69.68;100078.72;5062031;28;20028;-74
2021/08/06 05:47:22;;;;;;;6.85;2.65;;;;;;;20.08;67.29;100076.34;5057636;28;20099;-75
2021/08/06 05:49:48;;;;;;;4.15;2.40;;;;;;;19.64;69.47;100074.13;5081583;28;20076;-74
2021/08/06 05:52:13;;;;;;;2.50;1.98;;;;;;;20.48;65.22;100070.81;5081968;28;20120;-74
2021/08/06 05:54:38;;;;;;;3.30;2.25;;;;;;;21.15;62.94;100072.47;5098337;28;20042;-74
2021/08/06 05:57:04;;;;;;;3.50;2.25;;;;;;;20.48;65.43;100073.47;5076918;28;20073;-74
2021/08/06 05:59:29;;;;;;;5.53;2.72;;;;;;;20.84;64.54;100073.63;5098182;28;20040;-74
2021/08/06 06:01:55;;;;;;;5.25;1.83;;;;;;;21.95;60.68;100076.09;5058757;28;20036;-76
2021/08/06 06:04:21;;;;;;;4.10;2.78;;;;;;;21.32;63.12;100074.34;5075203;28;20335;-76
2021/08/06 06:06:46;;;;;;;11.10;2.45;;;;;;;21.71;63.07;100086.56;5068037;28;20048;-75
2021/08/06 06:09:12;;;;;;;4.35;2.17;;;;;;;22.08;61.48;100080.19;5096114;28;20031;-74
2021/08/06 06:11:37;;;;;;;5.00;1.90;;;;;;;21.97;62.24;100076.75;5077866;28;20095;-74
2021/08/06 06:14:03;;;;;;;11.50;2.60;;;;;;;21.98;61.75;100085.63;5054123;28;20381;-75
2021/08/06 06:16:28;;;;;;;3.88;2.00;;;;;;;21.75;63.74;100085.25;5061280;28;20050;-75
2021/08/06 06:18:54;;;;;;;13.45;2.30;;;;;;;22.14;62.42;100080.41;5066255;28;20111;-74
2021/08/06 06:21:20;;;;;;;9.90;2.47;;;;;;;22.25;61.82;100087.31;5075815;28;20028;-74
2021/08/06 06:23:45;;;;;;;6.05;2.20;;;;;;;22.39;61.68;100089.44;5061739;28;20055;-75
2021/08/06 06:26:11;;;;;;;5.70;1.75;;;;;;;22.57;61.15;100085.88;5076016;28;20036;-75
2021/08/06 06:28:36;;;;;;;8.65;2.15;;;;;;;22.54;60.96;100092.38;5076056;28;20055;-76
2021/08/06 06:31:02;;;;;;;7.10;2.58;;;;;;;22.23;61.55;100095.47;5049572;28;20043;-76
2021/08/06 06:33:27;;;;;;;7.50;2.38;;;;;;;22.35;62.02;100101.41;5070073;28;20028;-75
2021/08/06 06:35:52;;;;;;;7.65;2.38;;;;;;;21.88;63.53;100106.19;5070727;28;20038;-75
2021/08/06 06:38:18;;;;;;;5.95;2.70;;;;;;;21.99;61.47;100097.94;5067769;28;20024;-75
2021/08/06 06:40:43;;;;;;;18.13;2.92;;;;;;;22.20;61.99;100098.44;5048382;28;20034;-75
2021/08/06 06:43:09;;;;;;;6.53;2.50;;;;;;;21.87;60.26;100102.69;5059613;28;20323;-75
2021/08/06 06:45:34;;;;;;;5.82;3.33;;;;;;;23.02;59.46;100097.25;5056994;28;20074;-76
2021/08/06 06:47:59;;;;;;;12.60;2.63;;;;;;;22.45;59.08;100095.97;5050522;28;20200;-76
2021/08/06 06:50:27;;;;;;;11.65;3.15;;;;;;;23.36;58.88;100100.72;5093195;28;20047;-76
2021/08/06 06:52:52;;;;;;;13.55;2.72;;;;;;;23.33;57.98;100102.88;5074136;28;20288;-74
2021/08/06 06:55:18;;;;;;;7.05;2.45;;;;;;;23.44;57.69;100101.75;5078275;28;20040;-74
2021/08/06 06:57:46;;;;;;;7.15;3.10;;;;;;;23.22;57.41;100106.69;5088367;28;20104;-75
2021/08/06 07:00:12;;;;;;;13.90;3.78;;;;;;;23.45;55.94;100108.75;5073405;28;20023;-74
2021/08/06 07:02:38;;;;;;;15.13;4.88;;;;;;;23.11;57.11;100110.50;5070862;28;20070;-74
2021/08/06 07:05:04;;;;;;;6.00;3.17;;;;;;;23.45;56.00;100104.25;5056306;28;20146;-75
2021/08/06 07:07:30;;;;;;;8.23;2.53;;;;;;;23.38;57.01;100120.09;5074149;28;20204;-75
2021/08/06 07:09:55;;;;;;;6.63;2.50;;;;;;;23.42;56.65;100112.59;5056008;28;20051;-75
2021/08/06 07:12:21;;;;;;;16.15;3.65;;;;;;;23.07;58.00;100119.84;5070169;28;20036;-75
2021/08/06 07:14:46;;;;;;;7.75;2.97;;;;;;;23.38;57.02;100122.75;5071855;28;20047;-75
2021/08/06 07:17:12;;;;;;;8.68;3.03;;;;;;;22.78;57.59;100114.84;5056968;28;20236;-75
2021/08/06 07:19:37;;;;;;;13.77;3.13;;;;;;;23.20;56.54;100114.03;5067752;28;20068;-75
2021/08/06 07:22:02;;;;;;;9.52;2.35;;;;;;;23.61;56.46;100118.63;5085430;28;20262;-75
2021/08/06 07:24:28;;;;;;;7.78;2.92;;;;;;;23.37;57.17;100121.06;5073288;28;20142;-77
2021/08/06 07:26:53;;;;;;;8.45;2.83;;;;;;;23.59;56.60;100121.47;5051272;28;20047;-76
2021/08/06 07:29:19;;;;;;;6.35;2.42;;;;;;;23.28;56.80;100111.38;5057701;28;20042;-75
2021/08/06 07:31:44;;;;;;;15.93;2.88;;;;;;;23.58;56.50;100109.94;5069120;28;20040;-76
2021/08/06 07:34:10;;;;;;;7.38;2.97;;;;;;;23.61;56.37;100114.13;5057411;28;20097;-76
2021/08/06 07:36:35;;;;;;;9.85;2.88;;;;;;;23.95;55.46;100105.97;5071718;28;20355;-77
2021/08/06 07:39:00;;;;;;;4.55;2.70;;;;;;;23.54;55.94;100107.78;5092674;28;20044;-76
2021/08/06 07:41:26;;;;;;;8.15;2.83;;;;;;;24.04;54.93;100106.81;5079462;28;20040;-76
2021/08/06 07:43:51;;;;;;;5.03;2.58;;;;;;;23.91;55.95;100115.34;5084163;28;20331;-75
2021/08/06 07:46:17;;;;;;;14.90;3.80;;;;;;;23.94;55.43;100119.56;5095729;28;20069;-75
2021/08/06 07:48:42;;;;;;;8.52;2.85;;;;;;;23.09;57.37;100119.69;5076468;28;20053;-75
2021/08/06 07:51:08;;;;;;;8.48;2.97;;;;;;;23.05;58.12;100110.28;5079984;28;20043;-75
2021/08/06 07:53:33;;;;;;;17.08;4.75;;;;;;;23.58;56.46;100114.47;5063876;28;20040;-75
2021/08/06 07:55:58;;;;;;;11.52;2.78;;;;;;;23.04;56.65;100124.63;5073581;28;20050;-73
2021/08/06 07:58:24;;;;;;;11.07;3.20;;;;;;;23.09;58.15;100117.84;5072641;28;20044;-75
2021/08/06 08:00:49;;;;;;;16.67;3.65;;;;;;;23.41;54.65;100118.09;5095474;28;20035;-76
2021/08/06 08:03:15;;;;;;;12.18;2.40;;;;;;;23.10;56.58;100132.00;5071648;28;20091;-73
2021/08/06 08:05:40;;;;;;;13.70;3.25;;;;;;;24.26;54.36;100126.69;5077558;28;20192;-75
2021/08/06 08:08:05;;;;;;;21.52;4.25;;;;;;;24.66;53.53;100116.94;5058586;28;20032;-74
2021/08/06 08:10:31;;;;;;;26.52;3.65;;;;;;;24.44;52.21;100117.66;5069433;28;20044;-74
2021/08/06 08:12:57;;;;;;;16.77;3.70;;;;;;;24.49;53.65;100126.84;5068928;28;20217;-74
2021/08/06 08:15:22;;;;;;;13.10;2.85;;;;;;;24.13;54.02;100123.72;5058295;28;20426;-76
2021/08/06 08:17:47;;;;;;;11.43;2.83;;;;;;;23.94;55.36;100124.91;5045673;28;20036;-75
2021/08/06 08:20:14;;;;;;;16.40;3.30;;;;;;;23.88;54.92;100117.53;5063030;28;20073;-75
2021/08/06 08:22:40;;;;;;;13.82;2.58;;;;;;;23.95;54.26;100121.19;5075802;28;20038;-74
2021/08/06 08:25:06;;;;;;;23.00;3.40;;;;;;;24.05;54.17;100124.56;5073615;28;20239;-74
2021/08/06 08:27:32;;;;;;;5.97;1.83;;;;;;;23.75;54.12;100118.81;5059137;28;20141;-73
2021/08/06 08:29:58;;;;;;;11.27;3.47;;;;;;;24.44;53.83;100115.81;5094543;28;20112;-73
2021/08/06 08:32:23;;;;;;;15.60;3.85;;;;;;;24.48;53.64;100125.16;5066945;28;20298;-73
2021/08/06 08:34:48;;;;;;;9.90;3.28;;;;;;;24.52;53.57;100125.66;5081959;28;20451;-73
2021/08/06 08:37:15;;;;;;;20.55;3.55;;;;;;;24.31;53.64;100129.72;5049876;28;20335;-74
2021/08/06 08:39:40;;;;;;;8.98;2.83;;;;;;;24.38;53.36;100127.19;5092917;28;20045;-74
2021/08/06 08:42:06;;;;;;;8.93;2.55;;;;;;;23.58;53.99;100120.63;5059855;28;20028;-74
2021/08/06 08:44:32;;;;;;;5.78;2.05;;;;;;;23.58;55.52;100127.81;5093186;28;20038;-74
2021/08/06 08:46:58;;;;;;;14.10;3.17;;;;;;;24.44;53.58;100123.00;5078158;28;20016;-74
2021/08/06 08:49:24;;;;;;;13.20;3.20;;;;;;;25.05;51.92;100128.69;5077223;28;20035;-75
2021/08/06 08:51:50;;;;;;;9.23;2.50;;;;;;;25.28;51.05;100123.44;5056505;28;20035;-74
2021/08/06 08:54:15;;;;;;;13.95;2.88;;;;;;;24.94;50.66;100113.88;5076906;28;20036;-74
2021/08/06 08:56:42;;;;;;;15.68;2.83;;;;;;;25.14;51.53;100125.00;5095145;28;20281;-74
2021/08/06 08:59:07;;;;;;;11.52;2.78;;;;;;;24.42;53.33;100130.38;5080232;28;20038;-73
2021/08/06 09:01:33;;;;;;;25.98;3.83;;;;;;;24.68;52.39;100135.53;5034519;28;20036;-73
2021/08/06 09:03:58;;;;;;;14.52;3.00;;;;;;;24.50;52.93;100141.91;5080520;28;20040;-75
2021/08/06 09:06:40;;;;;;;22.83;4.10;;;;;;;24.57;52.67;100138.56;5035551;28;20036;-74
2021/08/06 09:09:14;;;;;;;17.67;2.72;;;;;;;24.38;53.24;100140.59;5073852;28;20043;-74
2021/08/06 09:11:39;;;;;;;15.48;2.78;;;;;;;23.81;53.97;100144.06;5068676;28;20040;-73
2021/08/06 09:14:21;;;;;;;6.15;2.00;;;;;;;23.09;55.48;100151.72;5086328;28;20040;-73
2021/08/06 09:17:02;;;;;;;18.50;2.45;;;;;;;23.58;54.17;100151.88;5053562;28;20030;-74
2021/08/06 09:19:34;;;;;;;5.30;1.45;;;;;;;23.69;53.27;100151.56;5053737;28;20060;-74
2021/08/06 09:22:21;;;;;;;7.57;1.77;;;;;;;23.67;53.64;100147.41;5048341;28;20035;-74
2021/08/06 09:25:05;;;;;;;13.50;2.25;;;;;;;23.63;53.77;100154.03;5053731;28;20375;-74
2021/08/06 09:27:32;;;;;;;7.95;1.60;;;;;;;23.96;52.28;100144.28;5073874;28;20499;-74
2021/08/06 09:29:58;;;;;;;8.15;2.05;;;;;;;24.21;52.13;100147.78;5057942;28;20093;-75
2021/08/06 09:32:24;;;;;;;3.78;1.50;;;;;;;24.38;51.35;100143.25;5057635;28;20063;-74
2021/08/06 09:34:50;;;;;;;5.30;1.80;;;;;;;24.54;51.61;100147.78;5069457;28;20044;-74
2021/08/06 09:37:18;;;;;;;11.27;2.10;;;;;;;24.60;51.22;100147.09;5070839;28;20320;-75
2021/08/06 09:39:47;;;;;;;13.63;2.25;;;;;;;24.17;51.94;100149.13;5055264;28;20040;-74
2021/08/06 09:42:24;;;;;;;8.13;2.00;;;;;;;24.12;52.30;100154.13;5057660;28;20036;-74
2021/08/06 09:45:01;;;;;;;10.95;2.08;;;;;;;25.11;50.88;100146.78;5070029;28;20327;-80
2021/08/06 09:47:26;;;;;;;19.92;2.45;;;;;;;26.14;49.14;100145.69;5037428;28;20372;-78
2021/08/06 09:49:54;;;;;;;9.13;1.95;;;;;;;25.27;50.46;100145.91;5043158;28;20023;-77
2021/08/06 09:52:38;;;;;;;5.15;2.00;;;;;;;23.57;53.44;100118.13;5068595;28;20058;-74
2021/08/06 09:55:05;;;;;;;14.98;2.60;;;;;;;23.19;56.88;100150.59;5074449;28;20043;-73
2021/08/06 09:57:30;;;;;;;20.20;2.20;;;;;;;24.06;54.47;100147.59;5070177;28;20216;-74
2021/08/06 09:59:57;;;;;;;10.98;2.38;;;;;;;26.65;49.49;100142.38;5090381;28;20070;-74
2021/08/06 10:02:32;;;;;;;21.15;2.70;;;;;;;25.86;50.01;100148.88;5088457;28;20028;-78
2021/08/06 10:05:08;;;;;;;14.68;2.10;;;;;;;25.54;51.13;100135.69;5040684;28;20028;-77
2021/08/06 10:07:44;;;;;;;4.88;1.67;;;;;;;25.93;49.30;100142.84;5089428;28;20051;-72
2021/08/06 10:10:30;;;;;;;12.85;2.20;;;;;;;24.52;54.09;100141.72;5068672;28;20032;-72
2021/08/06 10:12:56;;;;;;;11.55;1.80;;;;;;;23.88;56.16;100144.25;5071298;28;20032;-73
2021/08/06 10:15:22;;;;;;;10.32;2.13;;;;;;;23.85;55.88;100137.41;5067971;28;20391;-73
2021/08/06 10:17:47;;;;;;;21.75;2.55;;;;;;;23.57;55.97;100140.31;5071185;28;20039;-72
2021/08/06 10:20:14;;;;;;;6.20;1.60;;;;;;;23.48;56.39;100159.19;5050557;28;20035;-73
2021/08/06 10:22:39;;;;;;;9.07;2.15;;;;;;;23.10;57.94;100154.25;5053721;28;20181;-73
2021/08/06 10:25:06;;;;;;;8.50;2.35;;;;;;;22.99;59.50;100165.16;5057219;28;20099;-72
2021/08/06 10:27:32;;;;;;;10.05;1.88;;;;;;;22.99;59.44;100179.34;5069836;28;20330;-72
2021/08/06 10:30:05;;;;;;;11.90;2.17;;;;;;;22.48;60.20;100172.19;5059799;28;20029;-72
2021/08/06 10:32:30;;;;;;;4.25;1.67;;;;;;;22.13;61.93;100171.22;5076408;28;20420;-73
2021/08/06 10:35:02;;;;;;;18.15;1.98;;;;;;;23.42;57.62;100166.03;5054885;28;20036;-73
2021/08/06 10:37:50;;;;;;;7.50;1.67;;;;;;;23.60;56.33;100154.41;5066588;28;20284;-73
2021/08/06 10:40:38;;;;;;;9.32;1.40;;;;;;;23.10;57.64;100162.25;5073893;28;20119;-73
2021/08/06 10:43:10;;;;;;;5.47;1.65;;;;;;;21.43;64.94;100164.69;5084155;28;20031;-76
2021/08/06 10:45:48;;;;;;;8.63;1.60;;;;;;;22.13;61.01;100171.22;5083423;28;20307;-74
2021/08/06 10:48:28;;;;;;;9.10;1.23;;;;;;;22.76;58.61;100163.03;5080957;28;20107;-74
2021/08/06 10:51:12;;;;;;;2.28;1.23;;;;;;;22.75;58.91;100164.03;5095985;28;20081;-74
2021/08/06 10:53:56;;;;;;;1.73;1.40;;;;;;;20.61;68.61;100176.91;5095755;28;20036;-74
2021/08/06 10:56:29;;;;;;;8.10;1.85;;;;;;;20.58;69.38;100169.19;5078109;28;20054;-74
2021/08/06 10:59:12;;;;;;;2.05;1.45;;;;;;;21.62;63.64;100177.06;5078883;28;20044;-75
2021/08/06 11:01:45;;;;;;;1.70;1.10;;;;;;;22.75;59.55;100164.03;5069840;28;20040;-74
2021/08/06 11:04:16;;;;;;;2.60;1.15;;;;;;;23.66;56.75;100151.88;5065689;28;20073;-74
2021/08/06 11:06:52;;;;;;;1.73;0.82;;;;;;;23.19;58.08;100149.75;5065476;28;20024;-74
2021/08/06 11:09:24;;;;;;;3.25;1.20;;;;;;;;;;5094194;28;20105;-74
2021/08/06 11:11:51;;;;;;;3.35;1.10;;;;;;;22.91;59.03;100141.91;5086276;28;20036;-74
2021/08/06 11:14:36;;;;;;;2.67;1.27;;;;;;;22.28;60.89;100167.03;5054376;28;20327;-74
2021/08/06 11:17:14;;;;;;;3.72;1.30;;;;;;;22.47;60.61;100170.53;5060781;28;20036;-74
2021/08/06 11:19:40;;;;;;;5.18;1.50;;;;;;;21.94;62.29;100166.88;5058952;28;20447;-74
2021/08/06 11:22:10;;;;;;;2.43;1.70;;;;;;;22.10;62.15;100160.84;5088563;28;20036;-74
2021/08/06 11:24:43;;;;;;;2.03;1.50;;;;;;;21.34;67.05;100151.41;5057957;28;20303;-74
2021/08/06 11:27:09;;;;;;;3.38;1.70;;;;;;;21.41;66.77;100156.00;5068566;28;20112;-74